Home

Weather

KSLC Current Conditions

KSLC 190954Z 13012KT 10SM FEW120 07/M01 A2996 RMK AO2 SLP126 T00671011

KSLC Aviation Forecast

TAF KSLC 190542Z 1906/2012 15007KT P6SM BKN120 FM191500 16018G28KT P6SM SCT100 BKN120 FM192100 29020G30KT P6SM -SHRA SCT040 BKN060 FM200000 33008KT 5SM -RA BR SCT020 BKN035 FM200600 31017G25KT P6SM -SHRA OVC050


0° F

Currently
Currently
Currently
Currently
Currently
Currently